createdAt,value
2022-11-25T00:01:20.456Z,100759.56
2022-11-25T00:03:48.172Z,100757.63
2022-11-25T00:06:17.530Z,100665.00
2022-11-25T00:08:46.470Z,100774.56
2022-11-25T00:11:14.780Z,100781.53
2022-11-25T00:13:42.745Z,100656.84
2022-11-25T00:16:15.631Z,100733.38
2022-11-25T00:18:55.993Z,100765.53
2022-11-25T00:21:25.603Z,100776.06
2022-11-25T00:23:53.519Z,100772.28
2022-11-25T00:26:21.284Z,100769.66
2022-11-25T00:28:48.687Z,100749.56
2022-11-25T00:31:21.834Z,100771.44
2022-11-25T00:33:50.082Z,100777.16
2022-11-25T00:36:21.314Z,100770.22
2022-11-25T00:38:53.723Z,100757.66
2022-11-25T00:41:38.937Z,100778.78
2022-11-25T00:44:24.541Z,100771.44
2022-11-25T00:46:51.469Z,100762.78
2022-11-25T00:49:18.341Z,100786.72
2022-11-25T00:51:46.294Z,100624.53
2022-11-25T00:54:13.395Z,100779.50
2022-11-25T01:01:42.701Z,100795.09
2022-11-25T01:04:09.765Z,100778.97
2022-11-25T01:06:37.884Z,100788.38
2022-11-25T01:09:09.394Z,100788.84
2022-11-25T01:11:39.142Z,100772.19
2022-11-25T01:14:06.164Z,100799.88
2022-11-25T01:16:33.168Z,100803.81
2022-11-25T01:19:00.459Z,100794.31
2022-11-25T01:21:30.350Z,100781.00
2022-11-25T01:23:59.559Z,100790.63
2022-11-25T01:26:26.928Z,100772.09
2022-11-25T01:28:56.714Z,100740.00
2022-11-25T01:31:26.113Z,100800.84
2022-11-25T01:33:56.824Z,100810.91
2022-11-25T01:36:24.731Z,100818.19
2022-11-25T01:38:54.397Z,100790.72
2022-11-25T01:41:23.087Z,100812.34
2022-11-25T01:44:12.458Z,100794.50
2022-11-25T01:46:44.317Z,100815.22
2022-11-25T01:49:41.157Z,100817.84
2022-11-25T01:52:10.899Z,100818.75
2022-11-25T01:54:44.158Z,100821.50
2022-11-25T01:57:16.760Z,100818.50
2022-11-25T01:59:48.651Z,100823.00
2022-11-25T02:02:17.009Z,100803.75
2022-11-25T02:04:47.658Z,100793.72
2022-11-25T02:07:28.640Z,100829.34
2022-11-25T02:09:57.466Z,100832.16
2022-11-25T02:12:24.457Z,100824.00
2022-11-25T02:15:13.236Z,100831.66
2022-11-25T02:17:40.781Z,100832.41
2022-11-25T02:20:19.371Z,100832.41
2022-11-25T02:23:15.019Z,100826.69
2022-11-25T02:25:45.217Z,100830.31
2022-11-25T02:28:26.501Z,100824.13
2022-11-25T02:30:54.315Z,100830.84
2022-11-25T02:33:23.114Z,100833.53
2022-11-25T02:35:57.070Z,100827.13
2022-11-25T02:38:44.052Z,100826.13
2022-11-25T02:41:11.411Z,100821.56
2022-11-25T02:43:39.207Z,100832.84
2022-11-25T02:46:20.363Z,100831.97
2022-11-25T02:51:40.077Z,100780.81
2022-11-25T02:54:09.374Z,100815.41
2022-11-25T02:56:37.516Z,100825.47
2022-11-25T02:59:04.972Z,100832.09
2022-11-25T03:01:32.667Z,100781.88
2022-11-25T03:03:59.736Z,100801.72
2022-11-25T03:06:29.334Z,100846.72
2022-11-25T03:08:56.906Z,100843.28
2022-11-25T03:11:44.546Z,100819.63
2022-11-25T03:14:11.484Z,100858.78
2022-11-25T03:16:38.412Z,100853.56
2022-11-25T03:19:05.638Z,100846.03
2022-11-25T03:21:32.535Z,100836.59
2022-11-25T03:23:59.749Z,100856.44
2022-11-25T03:26:26.799Z,100865.84
2022-11-25T03:28:53.693Z,100870.78
2022-11-25T03:31:20.876Z,100879.28
2022-11-25T03:33:48.396Z,100840.22
2022-11-25T03:36:15.770Z,100881.47
2022-11-25T03:38:42.765Z,100876.41
2022-11-25T03:41:09.674Z,100895.84
2022-11-25T03:43:36.654Z,100889.09
2022-11-25T03:46:03.747Z,100895.72
2022-11-25T03:48:31.015Z,100889.91
2022-11-25T03:50:57.907Z,100900.00
2022-11-25T03:53:26.136Z,100887.66
2022-11-25T03:55:53.262Z,100871.22
2022-11-25T03:58:22.808Z,100898.81
2022-11-25T04:00:51.256Z,100901.47
2022-11-25T04:03:18.213Z,100902.88
2022-11-25T04:05:45.138Z,100880.88
2022-11-25T04:08:13.757Z,100872.00
2022-11-25T04:10:41.204Z,100914.03
2022-11-25T04:13:10.084Z,100883.22
2022-11-25T04:15:47.101Z,100879.56
2022-11-25T04:18:17.069Z,100914.38
2022-11-25T04:20:44.878Z,100926.03
2022-11-25T04:23:13.394Z,100914.03
2022-11-25T04:25:49.158Z,100907.31
2022-11-25T04:28:23.545Z,100864.69
2022-11-25T04:30:50.756Z,100914.28
2022-11-25T04:33:18.078Z,100916.34
2022-11-25T04:35:47.626Z,100928.56
2022-11-25T04:38:14.580Z,100883.03
2022-11-25T04:40:42.199Z,100847.38
2022-11-25T04:43:19.528Z,100897.38
2022-11-25T04:46:13.096Z,100925.53
2022-11-25T04:48:39.424Z,100919.78
2022-11-25T04:51:06.389Z,100800.38
2022-11-25T04:53:33.557Z,100915.47
2022-11-25T04:56:00.536Z,100941.28
2022-11-25T04:58:48.577Z,100924.06
2022-11-25T05:01:16.254Z,100917.94
2022-11-25T05:03:54.443Z,100912.25
2022-11-25T05:06:24.889Z,100914.69
2022-11-25T05:08:53.242Z,100915.69
2022-11-25T05:11:21.757Z,100930.94
2022-11-25T05:13:50.366Z,100934.25
2022-11-25T05:16:18.168Z,100915.34
2022-11-25T05:18:45.890Z,100916.31
2022-11-25T05:21:13.426Z,100909.16
2022-11-25T05:23:42.371Z,100822.69
2022-11-25T05:26:09.680Z,100924.53
2022-11-25T05:28:40.569Z,100929.13
2022-11-25T05:31:07.639Z,100917.00
2022-11-25T05:33:34.676Z,100921.78
2022-11-25T05:36:03.679Z,100929.50
2022-11-25T05:38:50.785Z,100937.53
2022-11-25T05:41:27.772Z,100934.13
2022-11-25T05:43:54.868Z,100931.38
2022-11-25T05:46:22.921Z,100944.25
2022-11-25T05:48:57.442Z,100946.38
2022-11-25T05:51:25.759Z,100947.63
2022-11-25T05:53:55.162Z,100911.38
2022-11-25T05:56:26.128Z,100950.09
2022-11-25T05:59:10.481Z,100945.13
2022-11-25T06:01:46.648Z,100924.09
2022-11-25T06:04:15.344Z,100958.94
2022-11-25T06:06:42.282Z,100943.81
2022-11-25T06:09:09.225Z,100922.97
2022-11-25T06:11:36.783Z,100957.22
2022-11-25T06:14:03.891Z,100934.88
2022-11-25T06:16:30.897Z,100973.41
2022-11-25T06:19:09.828Z,100964.22
2022-11-25T06:21:37.981Z,100950.13
2022-11-25T06:24:05.305Z,100949.72
2022-11-25T06:26:32.298Z,100975.97
2022-11-25T06:29:00.160Z,100975.75
2022-11-25T06:31:27.246Z,100935.88
2022-11-25T06:34:06.493Z,100970.97
2022-11-25T06:36:34.787Z,100974.41
2022-11-25T06:39:01.699Z,100976.38
2022-11-25T06:41:28.623Z,100979.06
2022-11-25T06:43:55.713Z,100990.94
2022-11-25T06:46:25.127Z,100988.75
2022-11-25T06:48:55.563Z,100990.22
2022-11-25T06:51:24.606Z,100992.63
2022-11-25T06:53:51.973Z,100990.13
2022-11-25T06:56:20.197Z,100984.56
2022-11-25T06:58:48.277Z,100902.50
2022-11-25T07:01:16.993Z,101003.97
2022-11-25T07:03:44.948Z,100967.81
2022-11-25T07:06:13.031Z,101006.09
2022-11-25T07:08:40.683Z,100999.88
2022-11-25T07:11:25.857Z,101001.50
2022-11-25T07:13:55.598Z,101013.78
2022-11-25T07:16:22.964Z,100976.16
2022-11-25T07:18:49.955Z,100994.91
2022-11-25T07:21:22.516Z,100984.34
2022-11-25T07:23:50.453Z,101024.44
2022-11-25T07:26:26.286Z,101026.88
2022-11-25T07:28:58.535Z,101025.09
2022-11-25T07:31:33.270Z,101007.06
2022-11-25T07:34:07.353Z,101021.97
2022-11-25T07:36:35.795Z,101029.44
2022-11-25T07:39:06.797Z,101026.75
2022-11-25T07:41:34.312Z,100988.69
2022-11-25T07:44:03.823Z,101039.25
2022-11-25T07:46:41.579Z,101037.06
2022-11-25T07:49:14.896Z,101038.88
2022-11-25T07:51:50.258Z,101039.00
2022-11-25T07:54:17.705Z,101040.13
2022-11-25T07:56:45.246Z,101040.41
2022-11-25T07:59:18.424Z,101046.09
2022-11-25T08:01:45.561Z,101020.22
2022-11-25T08:04:19.794Z,101015.88
2022-11-25T08:06:49.390Z,101053.88
2022-11-25T08:09:19.516Z,100943.09
2022-11-25T08:11:47.771Z,101049.91
2022-11-25T08:14:15.819Z,101050.38
2022-11-25T08:16:43.435Z,101011.19
2022-11-25T08:19:14.055Z,101049.34
2022-11-25T08:21:41.898Z,101035.69
2022-11-25T08:24:15.070Z,101033.03
2022-11-25T08:26:42.351Z,101053.69
2022-11-25T08:29:13.940Z,101046.06
2022-11-25T08:31:41.655Z,101058.34
2022-11-25T08:34:08.932Z,100992.75
2022-11-25T08:36:36.518Z,101063.84
2022-11-25T08:39:28.761Z,101057.34
2022-11-25T08:41:54.133Z,101059.09
2022-11-25T08:44:21.059Z,101056.69
2022-11-25T08:46:48.135Z,101037.25
2022-11-25T08:49:17.477Z,101066.28
2022-11-25T08:51:44.675Z,101065.41
2022-11-25T08:54:11.851Z,101067.84
2022-11-25T08:56:38.908Z,101039.75
2022-11-25T08:59:06.219Z,101071.63
2022-11-25T09:01:33.375Z,101036.84
2022-11-25T09:04:01.224Z,101003.34
2022-11-25T09:06:29.150Z,101065.72
2022-11-25T09:08:58.764Z,101061.38
2022-11-25T09:11:26.544Z,101067.16
2022-11-25T09:13:53.765Z,101072.09
2022-11-25T09:16:21.509Z,101046.88
2022-11-25T09:18:55.269Z,101064.50
2022-11-25T09:21:25.250Z,101043.09
2022-11-25T09:23:54.671Z,101073.53
2022-11-25T09:26:29.703Z,101080.50
2022-11-25T09:28:57.102Z,101058.31
2022-11-25T09:31:24.453Z,101055.84
2022-11-25T09:33:51.946Z,101056.75
2022-11-25T09:36:20.786Z,101057.81
2022-11-25T09:38:47.779Z,101071.41
2022-11-25T09:42:15.537Z,101061.88
2022-11-25T09:45:23.885Z,101069.69
2022-11-25T09:48:33.003Z,101053.09
2022-11-25T09:51:13.907Z,101074.56
2022-11-25T09:53:45.264Z,101067.06
2022-11-25T09:56:36.220Z,101061.19
2022-11-25T09:59:13.117Z,101065.94
2022-11-25T10:01:49.836Z,101048.41
2022-11-25T10:04:39.652Z,101081.66
2022-11-25T10:07:16.554Z,101048.16
2022-11-25T10:09:43.507Z,101041.13
2022-11-25T10:12:32.549Z,101073.13
2022-11-25T10:15:07.917Z,100972.94
2022-11-25T10:17:45.539Z,101072.00
2022-11-25T10:20:12.953Z,101084.81
2022-11-25T10:22:45.887Z,101063.28
2022-11-25T10:25:14.956Z,101075.69
2022-11-25T10:27:53.010Z,101095.56
2022-11-25T10:30:24.231Z,101036.19
2022-11-25T10:33:02.499Z,101096.31
2022-11-25T10:35:29.718Z,101096.31
2022-11-25T10:37:59.469Z,101101.66
2022-11-25T10:40:26.494Z,101104.59
2022-11-25T10:42:53.483Z,101096.56
2022-11-25T10:45:29.259Z,101089.78
2022-11-25T10:48:15.128Z,101104.88
2022-11-25T10:51:16.173Z,101110.38
2022-11-25T10:54:09.924Z,101119.16
2022-11-25T10:57:00.525Z,101104.75
2022-11-25T10:59:35.016Z,101123.84
2022-11-25T11:02:23.772Z,101113.72
2022-11-25T11:05:01.733Z,101107.56
2022-11-25T11:07:33.984Z,101108.25
2022-11-25T11:10:13.868Z,101123.50
2022-11-25T11:13:03.281Z,101136.88
2022-11-25T11:15:47.170Z,101131.88
2022-11-25T11:18:23.890Z,101007.03
2022-11-25T11:20:53.381Z,101132.00
2022-11-25T11:23:20.512Z,101136.97
2022-11-25T11:25:58.236Z,101139.41
2022-11-25T11:28:33.086Z,101095.22
2022-11-25T11:31:04.539Z,101142.28
2022-11-25T11:33:51.328Z,101135.00
2022-11-25T11:36:33.697Z,101105.97
2022-11-25T11:39:22.143Z,101131.72
2022-11-25T11:42:10.725Z,101144.41
2022-11-25T11:45:15.527Z,101116.63
2022-11-25T11:48:04.018Z,101147.72
2022-11-25T11:50:39.947Z,101140.66
2022-11-25T11:53:20.737Z,101144.84
2022-11-25T11:56:34.328Z,101145.34
2022-11-25T11:59:12.275Z,101153.06
2022-11-25T12:01:55.062Z,101150.47
2022-11-25T12:04:30.078Z,101151.44
2022-11-25T12:07:08.983Z,101144.50
2022-11-25T12:09:44.417Z,101045.66
2022-11-25T12:12:19.666Z,101169.41
2022-11-25T12:15:03.543Z,101162.78
2022-11-25T12:17:40.972Z,101162.06
2022-11-25T12:20:36.526Z,101166.59
2022-11-25T12:23:15.239Z,101162.00
2022-11-25T12:25:43.934Z,101134.88
2022-11-25T12:28:21.036Z,101166.84
2022-11-25T12:30:50.926Z,101171.19
2022-11-25T12:33:26.964Z,101175.63
2022-11-25T12:36:03.969Z,101169.66
2022-11-25T12:38:37.581Z,101173.75
2022-11-25T12:41:25.679Z,101170.94
2022-11-25T12:44:03.121Z,101175.25
2022-11-25T12:46:36.002Z,101195.53
2022-11-25T12:49:04.273Z,101141.19
2022-11-25T12:52:19.457Z,101185.88
2022-11-25T12:55:19.915Z,101193.25
2022-11-25T12:58:01.853Z,101192.28
2022-11-25T13:00:47.759Z,101191.72
2022-11-25T13:03:23.845Z,101196.88
2022-11-25T13:05:59.817Z,101184.75
2022-11-25T13:08:48.500Z,101203.81
2022-11-25T13:11:59.354Z,101213.91
2022-11-25T13:15:05.411Z,101211.94
2022-11-25T13:17:40.016Z,101169.28
2022-11-25T13:20:33.390Z,101207.69
2022-11-25T13:23:10.397Z,101213.78
2022-11-25T13:25:39.049Z,101217.44
2022-11-25T13:28:36.698Z,101220.19
2022-11-25T13:31:25.483Z,101182.91
2022-11-25T13:33:58.334Z,101211.59
2022-11-25T13:36:42.997Z,101217.41
2022-11-25T13:39:38.448Z,101180.13
2022-11-25T13:42:13.986Z,101215.91
2022-11-25T13:44:53.384Z,101223.06
2022-11-25T13:47:35.649Z,101226.72
2022-11-25T13:50:04.498Z,101225.03
2022-11-25T13:52:33.731Z,101228.34
2022-11-25T13:55:07.804Z,101198.31
2022-11-25T13:57:38.550Z,101206.06
2022-11-25T14:00:34.616Z,101228.34
2022-11-25T14:03:19.702Z,101225.72
2022-11-25T14:05:58.739Z,101234.41
2022-11-25T14:08:44.018Z,101230.97
2022-11-25T14:11:10.882Z,101235.50
2022-11-25T14:13:56.743Z,101237.81
2022-11-25T14:16:48.631Z,101234.97
2022-11-25T14:20:01.127Z,101232.16
2022-11-25T14:22:47.925Z,101228.69
2022-11-25T14:25:27.951Z,101223.41
2022-11-25T14:28:07.707Z,101211.53
2022-11-25T14:30:36.247Z,101240.06
2022-11-25T14:33:08.423Z,101243.16
2022-11-25T14:35:45.300Z,101215.41
2022-11-25T14:38:40.640Z,101246.19
2022-11-25T14:41:16.898Z,101252.28
2022-11-25T14:43:48.699Z,101245.06
2022-11-25T14:46:21.086Z,101258.84
2022-11-25T14:49:05.135Z,101261.50
2022-11-25T14:51:38.311Z,101257.88
2022-11-25T14:54:09.841Z,101271.53
2022-11-25T14:56:39.271Z,101238.97
2022-11-25T14:59:10.245Z,101254.75
2022-11-25T15:01:39.551Z,101259.66
2022-11-25T15:04:18.510Z,101265.69
2022-11-25T15:06:57.848Z,101248.94
2022-11-25T15:09:29.601Z,101234.72
2022-11-25T15:12:06.998Z,101250.84
2022-11-25T15:14:38.238Z,101250.00
2022-11-25T15:17:17.327Z,101272.75
2022-11-25T15:19:44.516Z,101254.88
2022-11-25T15:22:23.464Z,101270.06
2022-11-25T15:24:55.855Z,101279.41
2022-11-25T15:27:27.670Z,101282.41
2022-11-25T15:29:57.014Z,101274.25
2022-11-25T15:32:29.992Z,101245.50
2022-11-25T15:34:59.489Z,101239.84
2022-11-25T15:37:26.946Z,101169.81
2022-11-25T15:40:31.238Z,101273.63
2022-11-25T15:43:00.915Z,101271.59
2022-11-25T15:45:35.087Z,101279.34
2022-11-25T15:48:03.337Z,101282.09
2022-11-25T15:50:32.667Z,101268.53
2022-11-25T15:53:01.200Z,101269.25
2022-11-25T15:55:38.829Z,101278.44
2022-11-25T15:58:22.522Z,101279.66
2022-11-25T16:01:01.794Z,101281.09
2022-11-25T16:03:31.679Z,101279.16
2022-11-25T16:06:00.428Z,101244.78
2022-11-25T16:08:35.270Z,101281.00
2022-11-25T16:11:17.179Z,101289.06
2022-11-25T16:13:45.122Z,101253.88
2022-11-25T16:16:24.345Z,101287.66
2022-11-25T16:19:14.612Z,101290.84
2022-11-25T16:21:55.036Z,101233.88
2022-11-25T16:24:32.984Z,101295.25
2022-11-25T16:27:04.968Z,101292.69
2022-11-25T16:29:39.058Z,101289.19
2022-11-25T16:32:18.579Z,101288.06
2022-11-25T16:34:46.190Z,101289.66
2022-11-25T16:37:13.370Z,101277.25
2022-11-25T16:39:40.582Z,101285.44
2022-11-25T16:42:14.872Z,101259.72
2022-11-25T16:44:48.451Z,101296.22
2022-11-25T16:47:16.888Z,101292.50
2022-11-25T16:49:44.132Z,101295.22
2022-11-25T16:52:11.153Z,101266.56
2022-11-25T16:54:39.407Z,101278.78
2022-11-25T16:57:07.957Z,101293.22
2022-11-25T16:59:42.909Z,101289.63
2022-11-25T17:02:19.618Z,101297.44
2022-11-25T17:04:47.831Z,101306.25
2022-11-25T17:07:32.810Z,101303.72
2022-11-25T17:10:00.791Z,101303.22
2022-11-25T17:12:33.447Z,101305.81
2022-11-25T17:15:02.206Z,101280.81
2022-11-25T17:17:31.388Z,101309.59
2022-11-25T17:19:58.580Z,101314.06
2022-11-25T17:22:28.108Z,101313.00
2022-11-25T17:24:57.515Z,101321.19
2022-11-25T17:27:29.074Z,101326.06
2022-11-25T17:30:01.079Z,101319.00
2022-11-25T17:32:31.737Z,101304.56
2022-11-25T17:34:59.649Z,101296.19
2022-11-25T17:37:28.776Z,101312.25
2022-11-25T17:39:55.962Z,101314.75
2022-11-25T17:42:30.479Z,101321.63
2022-11-25T17:44:58.155Z,101309.38
2022-11-25T17:47:25.232Z,101291.91
2022-11-25T17:49:53.215Z,101247.81
2022-11-25T17:52:20.291Z,101310.97
2022-11-25T17:54:47.560Z,101317.91
2022-11-25T17:57:17.726Z,101304.25
2022-11-25T17:59:44.950Z,101317.06
2022-11-25T18:02:20.291Z,101310.22
2022-11-25T18:04:47.593Z,101287.97
2022-11-25T18:07:16.614Z,101325.44
2022-11-25T18:09:44.631Z,101306.59
2022-11-25T18:12:28.147Z,101289.22
2022-11-25T18:14:56.096Z,101313.63
2022-11-25T18:17:23.219Z,101317.50
2022-11-25T18:19:55.000Z,101318.59
2022-11-25T18:22:24.385Z,101328.72
2022-11-25T18:24:52.190Z,101322.44
2022-11-25T18:27:24.071Z,101331.06
2022-11-25T18:29:52.497Z,101324.47
2022-11-25T18:32:20.502Z,101334.75
2022-11-25T18:34:48.326Z,101330.63
2022-11-25T18:37:15.657Z,101326.56
2022-11-25T18:39:44.113Z,101312.22
2022-11-25T18:42:26.398Z,101303.84
2022-11-25T18:44:56.689Z,101323.22
2022-11-25T18:47:24.171Z,101321.00
2022-11-25T18:49:55.758Z,101328.97
2022-11-25T18:52:24.310Z,101332.81
2022-11-25T18:54:51.608Z,101346.63
2022-11-25T18:57:20.120Z,101332.97
2022-11-25T18:59:56.062Z,101326.81
2022-11-25T19:02:35.328Z,101242.03
2022-11-25T19:05:02.972Z,101354.41
2022-11-25T19:07:30.436Z,101309.97
2022-11-25T19:09:57.823Z,101339.94
2022-11-25T19:12:27.032Z,101338.63
2022-11-25T19:14:57.616Z,101347.28
2022-11-25T19:17:26.163Z,101338.63
2022-11-25T19:19:53.207Z,101351.63
2022-11-25T19:22:22.836Z,101358.94
2022-11-25T19:24:49.789Z,101375.78
2022-11-25T19:27:23.573Z,101357.13
2022-11-25T19:29:52.594Z,101337.75
2022-11-25T19:32:24.351Z,101364.00
2022-11-25T19:34:55.186Z,101354.44
2022-11-25T19:37:23.107Z,101377.13
2022-11-25T19:39:51.457Z,101374.13
2022-11-25T19:42:18.553Z,101372.00
2022-11-25T19:44:46.621Z,101371.28
2022-11-25T19:47:22.084Z,101266.06
2022-11-25T19:49:51.278Z,101386.69
2022-11-25T19:52:23.914Z,101354.13
2022-11-25T19:54:51.271Z,101317.00
2022-11-25T19:57:22.308Z,101374.47
2022-11-25T19:59:50.186Z,101382.03
2022-11-25T20:02:21.090Z,101384.56
2022-11-25T20:04:51.249Z,101380.38
2022-11-25T20:07:20.804Z,101370.69
2022-11-25T20:09:49.425Z,101365.19
2022-11-25T20:12:25.296Z,101387.13
2022-11-25T20:14:52.661Z,101383.81
2022-11-25T20:17:27.485Z,101382.47
2022-11-25T20:19:57.455Z,101362.19
2022-11-25T20:22:29.647Z,101215.81
2022-11-25T20:24:58.248Z,101372.97
2022-11-25T20:27:26.825Z,101381.47
2022-11-25T20:29:54.198Z,101383.56
2022-11-25T20:32:30.786Z,101355.31
2022-11-25T20:34:58.902Z,101379.94
2022-11-25T20:37:29.630Z,101400.09
2022-11-25T20:39:59.139Z,101406.34
2022-11-25T20:42:27.242Z,101388.16
2022-11-25T20:44:57.468Z,101402.03
2022-11-25T20:47:26.517Z,101408.88
2022-11-25T20:49:54.045Z,101386.84
2022-11-25T20:52:30.137Z,101368.03
2022-11-25T20:54:58.285Z,101415.03
2022-11-25T20:57:25.522Z,101378.91
2022-11-25T20:59:52.539Z,101373.09
2022-11-25T21:02:21.608Z,101405.34
2022-11-25T21:04:48.702Z,101405.78
2022-11-25T21:07:18.016Z,101419.22
2022-11-25T21:09:45.219Z,101422.03
2022-11-25T21:12:19.211Z,101422.34
2022-11-25T21:14:48.480Z,101421.59
2022-11-25T21:17:15.462Z,101411.16
2022-11-25T21:19:42.418Z,101425.03
2022-11-25T21:22:14.462Z,101422.34
2022-11-25T21:24:42.078Z,101419.34
2022-11-25T21:27:15.190Z,101433.84
2022-11-25T21:29:45.605Z,101408.03
2022-11-25T21:32:24.937Z,101427.88
2022-11-25T21:34:51.927Z,101435.19
2022-11-25T21:37:32.704Z,101429.63
2022-11-25T21:40:00.228Z,101401.91
2022-11-25T21:42:29.444Z,101415.03
2022-11-25T21:44:56.549Z,101411.44
2022-11-25T21:47:26.620Z,101428.47
2022-11-25T21:49:53.980Z,101430.53
2022-11-25T21:52:20.898Z,101435.91
2022-11-25T21:54:47.938Z,101410.09
2022-11-25T21:57:27.416Z,101441.88
2022-11-25T21:59:54.315Z,101414.28
2022-11-25T22:02:23.644Z,101402.22
2022-11-25T22:04:51.512Z,101427.59
2022-11-25T22:07:18.499Z,101434.91
2022-11-25T22:09:45.521Z,101432.94
2022-11-25T22:12:27.656Z,101326.44
2022-11-25T22:14:55.236Z,101442.78
2022-11-25T22:17:22.932Z,101442.94
2022-11-25T22:19:50.222Z,101445.19
2022-11-25T22:22:17.835Z,101447.13
2022-11-25T22:24:45.523Z,101448.34
2022-11-25T22:27:28.409Z,101449.38
2022-11-25T22:29:55.932Z,101451.75
2022-11-25T22:32:22.976Z,101453.25
2022-11-25T22:34:49.841Z,101431.75
2022-11-25T22:37:18.727Z,101442.81
2022-11-25T22:39:46.028Z,101448.16
2022-11-25T22:42:24.618Z,101419.66
2022-11-25T22:44:53.126Z,101413.25
2022-11-25T22:47:32.180Z,101449.09
2022-11-25T22:50:05.372Z,101444.31
2022-11-25T22:52:35.320Z,101449.06
2022-11-25T22:55:18.941Z,101415.50
2022-11-25T22:57:46.847Z,101426.38
2022-11-25T23:00:23.328Z,101439.38
2022-11-25T23:02:54.513Z,101447.72
2022-11-25T23:05:31.852Z,101411.00
2022-11-25T23:07:59.998Z,101436.38
2022-11-25T23:10:29.990Z,101324.31
2022-11-25T23:12:57.149Z,101374.59
2022-11-25T23:15:24.453Z,101427.13
2022-11-25T23:17:52.299Z,101435.78
2022-11-25T23:20:32.019Z,101435.94
2022-11-25T23:23:20.909Z,101439.81
2022-11-25T23:25:48.528Z,101383.13
2022-11-25T23:28:16.473Z,101434.00
2022-11-25T23:30:53.089Z,101396.25
2022-11-25T23:33:43.155Z,101406.69
2022-11-25T23:36:17.270Z,101409.66
2022-11-25T23:38:50.975Z,101411.44
2022-11-25T23:41:25.482Z,101444.59
2022-11-25T23:43:53.230Z,101442.22
2022-11-25T23:46:25.075Z,101441.31
2022-11-25T23:48:59.021Z,101433.84
2022-11-25T23:51:28.139Z,101436.53
2022-11-25T23:53:56.909Z,101415.94
2022-11-25T23:56:25.751Z,101426.97
2022-11-25T23:58:52.666Z,101445.03
